Time;durP1;ratioP1;P1;durP2;ratioP2;P2;SDS_P1;SDS_P2;PMS_P1;PMS_P2;Temp;Humidity;BMP_temperature;BMP_pressure;BME280_temperature;BME280_humidity;BME280_pressure;Samples;Min_cycle;Max_cycle;Signal;HPM_P1;HPM_P2
2023/03/28 00:02:11;;;;;;;9.57;9.37;;;20.60;49.60;;;;;;5013382;28;20478;-53
2023/03/28 00:04:40;;;;;;;8.97;8.77;;;20.60;49.70;;;;;;5013187;28;20510;-55
2023/03/28 00:07:07;;;;;;;9.40;9.20;;;20.60;49.70;;;;;;5012969;28;20462;-51
2023/03/28 00:09:34;;;;;;;9.00;8.80;;;20.60;49.70;;;;;;5013066;28;20524;-53
2023/03/28 00:12:00;;;;;;;8.80;8.60;;;20.50;49.60;;;;;;5013168;28;20888;-55
2023/03/28 00:14:27;;;;;;;9.30;9.07;;;20.60;49.70;;;;;;5012987;28;20506;-54
2023/03/28 00:16:56;;;;;;;8.63;8.43;;;20.50;49.60;;;;;;5012418;28;20607;-53
2023/03/28 00:19:24;;;;;;;9.10;8.90;;;20.60;49.60;;;;;;5012845;28;20442;-54
2023/03/28 00:21:51;;;;;;;10.03;9.83;;;20.60;49.60;;;;;;5012592;28;20473;-51
2023/03/28 00:24:20;;;;;;;9.07;8.77;;;20.50;49.50;;;;;;5012899;28;20474;-56
2023/03/28 00:26:53;;;;;;;8.90;8.70;;;20.50;49.40;;;;;;5012624;28;20513;-56
2023/03/28 00:29:20;;;;;;;8.60;8.40;;;20.50;49.50;;;;;;5012562;28;20492;-57
2023/03/28 00:31:48;;;;;;;9.23;9.00;;;20.60;49.50;;;;;;5012825;28;20967;-54
2023/03/28 00:34:15;;;;;;;9.13;8.93;;;20.50;49.40;;;;;;5012743;28;20477;-56
2023/03/28 00:36:44;;;;;;;10.23;9.93;;;20.50;49.40;;;;;;5012301;28;20462;-57
2023/03/28 00:39:12;;;;;;;9.37;9.17;;;20.50;49.40;;;;;;5012211;28;20474;-55
2023/03/28 00:41:41;;;;;;;9.53;9.33;;;20.50;49.40;;;;;;5012685;28;20472;-58
2023/03/28 00:44:51;;;;;;;10.07;9.63;;;20.50;49.40;;;;;;5012448;28;20446;-56
2023/03/28 00:47:29;;;;;;;9.60;9.40;;;20.50;49.30;;;;;;4997439;28;20490;-57
2023/03/28 00:50:01;;;;;;;9.47;9.27;;;20.40;49.30;;;;;;5012432;28;20486;-58
2023/03/28 00:52:36;;;;;;;9.20;9.00;;;20.50;49.30;;;;;;5012470;28;20452;-56
2023/03/28 00:55:04;;;;;;;9.87;9.57;;;20.40;49.20;;;;;;5012426;28;20479;-55
2023/03/28 00:57:32;;;;;;;8.90;8.70;;;20.40;49.30;;;;;;5011935;28;20462;-58
2023/03/28 00:59:59;;;;;;;9.20;9.00;;;20.40;49.30;;;;;;5012490;28;20446;-57
2023/03/28 01:02:26;;;;;;;8.53;8.23;;;20.40;49.40;;;;;;5012330;28;20450;-55
2023/03/28 01:04:58;;;;;;;9.43;9.13;;;20.40;49.40;;;;;;5012120;28;20509;-57
2023/03/28 01:07:26;;;;;;;8.80;8.60;;;20.40;49.40;;;;;;5011763;28;20458;-56
2023/03/28 01:09:55;;;;;;;9.33;9.03;;;20.40;49.40;;;;;;5012149;28;20572;-56
2023/03/28 01:12:23;;;;;;;9.10;8.90;;;20.40;49.40;;;;;;5012099;28;20484;-58
2023/03/28 01:14:50;;;;;;;9.20;9.00;;;20.40;49.40;;;;;;5012145;28;20549;-56
2023/03/28 01:17:17;;;;;;;9.43;9.20;;;20.40;49.40;;;;;;5011662;28;20477;-54
2023/03/28 01:19:57;;;;;;;9.27;9.07;;;20.40;49.40;;;;;;5011816;28;20446;-57
2023/03/28 01:23:01;;;;;;;9.90;9.60;;;20.30;49.40;;;;;;5012102;28;20477;-54
2023/03/28 01:25:55;;;;;;;9.60;9.40;;;20.40;49.50;;;;;;5011781;28;20548;-50
2023/03/28 01:28:38;;;;;;;9.57;9.27;;;20.30;49.50;;;;;;5010270;28;20477;-54
2023/03/28 01:31:38;;;;;;;8.73;8.53;;;20.40;49.50;;;;;;5012081;28;20536;-54
2023/03/28 01:34:41;;;;;;;9.17;8.87;;;20.30;49.50;;;;;;5011934;28;20873;-53
2023/03/28 01:37:22;;;;;;;9.20;9.00;;;20.30;49.50;;;;;;5006035;28;20485;-57
2023/03/28 01:40:18;;;;;;;9.13;8.93;;;20.30;49.50;;;;;;5012052;28;20442;-53
2023/03/28 01:42:54;;;;;;;8.90;8.70;;;20.30;49.50;;;;;;4998924;28;20477;-53
2023/03/28 01:45:31;;;;;;;9.50;9.27;;;20.30;49.40;;;;;;5011917;28;20564;-52
2023/03/28 01:48:05;;;;;;;8.90;8.70;;;20.30;49.50;;;;;;5011467;28;20473;-53
2023/03/28 01:50:39;;;;;;;8.90;8.70;;;20.30;49.50;;;;;;5012127;28;20529;-53
2023/03/28 01:53:15;;;;;;;9.03;8.83;;;20.30;50.00;;;;;;5011888;28;20947;-57
2023/03/28 01:55:48;;;;;;;9.70;9.40;;;20.30;49.40;;;;;;5011802;28;20469;-54
2023/03/28 01:58:20;;;;;;;9.17;8.87;;;20.30;49.40;;;;;;5011355;28;20457;-56
2023/03/28 02:00:53;;;;;;;9.53;9.23;;;20.30;49.40;;;;;;5011659;28;20540;-54
2023/03/28 02:03:25;;;;;;;8.80;8.60;;;20.30;49.40;;;;;;5011739;28;20456;-55
2023/03/28 02:05:55;;;;;;;9.00;8.70;;;20.30;49.30;;;;;;5043795;22;20529;-52
2023/03/28 02:08:25;;;;;;;9.60;9.30;;;20.30;49.30;;;;;;5011161;28;20454;-55
2023/03/28 02:10:55;;;;;;;9.17;8.90;;;20.20;49.20;;;;;;5011852;28;20454;-55
2023/03/28 02:13:25;;;;;;;9.37;9.07;;;20.30;49.30;;;;;;5011878;28;20871;-56
2023/03/28 02:15:56;;;;;;;9.80;9.60;;;20.30;49.30;;;;;;5011615;28;20466;-52
2023/03/28 02:18:28;;;;;;;9.53;9.33;;;20.30;49.30;;;;;;4994753;28;20489;-52
2023/03/28 02:20:58;;;;;;;9.00;8.70;;;20.30;49.30;;;;;;4992008;28;20804;-53
2023/03/28 02:23:30;;;;;;;8.90;8.70;;;20.20;49.30;;;;;;4992027;28;20542;-55
2023/03/28 02:25:57;;;;;;;8.90;8.70;;;20.20;49.20;;;;;;4991992;28;20466;-52
2023/03/28 02:28:26;;;;;;;9.57;9.20;;;20.20;49.30;;;;;;5007814;28;20500;-52
2023/03/28 02:30:54;;;;;;;9.67;9.37;;;20.20;49.30;;;;;;5011544;28;20457;-52
2023/03/28 02:33:36;;;;;;;9.73;9.43;;;20.20;49.40;;;;;;5011561;28;20454;-53
2023/03/28 02:36:13;;;;;;;9.53;9.30;;;20.20;49.30;;;;;;5000666;28;20482;-52
2023/03/28 02:38:49;;;;;;;9.57;9.30;;;20.20;49.40;;;;;;4992580;28;20453;-52
2023/03/28 02:41:26;;;;;;;9.30;9.10;;;20.20;49.40;;;;;;4995496;28;20446;-52
2023/03/28 02:44:06;;;;;;;8.80;8.50;;;20.20;49.40;;;;;;4995388;28;20928;-50
2023/03/28 02:46:43;;;;;;;9.83;9.53;;;20.20;49.30;;;;;;4995543;28;20553;-51
2023/03/28 02:49:40;;;;;;;9.70;9.30;;;20.20;49.40;;;;;;4995424;28;20569;-54
2023/03/28 02:52:14;;;;;;;9.33;9.03;;;20.20;49.40;;;;;;4994256;28;20537;-51
2023/03/28 02:54:51;;;;;;;9.40;9.10;;;20.20;49.40;;;;;;4994992;28;20465;-52
2023/03/28 02:57:27;;;;;;;9.13;8.93;;;20.20;49.40;;;;;;4975510;28;20530;-52
2023/03/28 02:59:57;;;;;;;9.10;8.90;;;20.20;49.40;;;;;;4975671;28;20444;-52
2023/03/28 03:02:24;;;;;;;9.83;9.53;;;20.20;49.40;;;;;;4975573;28;20483;-51
2023/03/28 03:04:56;;;;;;;9.47;9.27;;;20.20;49.40;;;;;;4975817;28;20468;-53
2023/03/28 03:07:23;;;;;;;9.10;8.90;;;20.20;49.30;;;;;;4975316;28;20451;-54
2023/03/28 03:09:52;;;;;;;9.10;8.60;;;20.20;49.30;;;;;;4975227;28;20570;-53
2023/03/28 03:12:20;;;;;;;8.40;8.10;;;20.20;49.20;;;;;;4975369;28;20488;-53
2023/03/28 03:14:49;;;;;;;8.90;8.70;;;20.20;49.20;;;;;;4975507;28;20582;-52
2023/03/28 03:17:17;;;;;;;8.70;8.50;;;20.20;49.20;;;;;;4975364;28;20821;-53
2023/03/28 03:19:43;;;;;;;8.87;8.67;;;20.20;49.10;;;;;;4975179;28;20444;-52
2023/03/28 03:22:11;;;;;;;8.93;8.73;;;20.20;49.20;;;;;;4975318;28;20490;-52
2023/03/28 03:24:38;;;;;;;9.10;8.80;;;20.10;49.10;;;;;;4975160;28;20978;-53
2023/03/28 03:27:06;;;;;;;9.00;8.80;;;20.10;49.10;;;;;;4995405;28;20530;-55
2023/03/28 03:29:33;;;;;;;9.10;8.90;;;20.10;49.10;;;;;;5013976;28;20568;-55
2023/03/28 03:32:00;;;;;;;9.23;9.03;;;20.10;49.10;;;;;;5014558;28;20485;-56
2023/03/28 03:34:26;;;;;;;8.77;8.57;;;20.10;49.00;;;;;;5013789;28;20537;-52
2023/03/28 03:36:53;;;;;;;9.20;9.00;;;20.10;49.00;;;;;;5013507;28;20538;-55
2023/03/28 03:39:21;;;;;;;9.10;8.90;;;20.10;49.00;;;;;;5013695;28;20446;-52
2023/03/28 03:41:47;;;;;;;9.30;9.10;;;20.10;48.90;;;;;;5013865;28;20940;-51
2023/03/28 03:44:16;;;;;;;9.17;8.97;;;20.10;48.90;;;;;;5014018;28;20880;-54
2023/03/28 03:46:43;;;;;;;9.37;9.13;;;20.10;49.00;;;;;;5013422;28;20569;-54
2023/03/28 03:49:10;;;;;;;9.53;9.33;;;20.10;48.90;;;;;;5014105;28;20573;-53
2023/03/28 03:51:38;;;;;;;10.00;9.70;;;20.10;48.90;;;;;;5012664;28;20482;-51
2023/03/28 03:54:05;;;;;;;9.00;8.80;;;20.10;48.90;;;;;;5013536;28;20446;-51
2023/03/28 03:56:32;;;;;;;10.00;9.80;;;20.10;48.90;;;;;;5000539;28;20839;-51
2023/03/28 03:58:59;;;;;;;9.57;9.37;;;20.10;48.90;;;;;;4993847;28;20534;-53
2023/03/28 04:01:28;;;;;;;9.23;9.03;;;20.10;48.90;;;;;;4993981;28;20493;-51
2023/03/28 04:03:56;;;;;;;9.80;9.20;;;20.10;48.90;;;;;;4994033;28;20513;-51
2023/03/28 04:06:23;;;;;;;9.37;9.13;;;20.20;49.00;;;;;;4994022;28;20510;-51
2023/03/28 04:08:51;;;;;;;9.60;9.40;;;20.10;48.90;;;;;;4993697;28;20539;-51
2023/03/28 04:11:17;;;;;;;10.23;9.73;;;20.20;49.00;;;;;;4993680;28;20466;-51
2023/03/28 04:13:44;;;;;;;9.47;9.17;;;20.20;48.90;;;;;;4993586;28;20541;-52
2023/03/28 04:16:12;;;;;;;10.10;9.60;;;20.20;48.90;;;;;;4993876;28;20513;-52
2023/03/28 04:18:49;;;;;;;9.87;9.50;;;20.20;49.00;;;;;;4993681;28;20458;-51
2023/03/28 04:21:17;;;;;;;9.60;9.20;;;20.30;50.10;;;;;;4993486;28;20457;-54
2023/03/28 04:23:47;;;;;;;9.37;8.97;;;20.30;50.40;;;;;;4993387;28;20996;-51
2023/03/28 04:26:14;;;;;;;11.43;10.60;;;20.30;50.80;;;;;;5003332;28;20983;-55
2023/03/28 04:28:42;;;;;;;9.07;8.63;;;20.30;53.40;;;;;;5003003;28;20496;-57
2023/03/28 04:31:10;;;;;;;9.93;9.43;;;20.30;53.30;;;;;;5002833;28;20479;-56
2023/03/28 04:33:38;;;;;;;10.87;10.27;;;20.30;53.20;;;;;;4993807;28;20812;-56
2023/03/28 04:36:09;;;;;;;13.23;11.90;;;20.30;54.30;;;;;;5000582;28;20472;-55
2023/03/28 04:38:36;;;;;;;10.93;10.20;;;20.30;54.20;;;;;;5012582;28;20546;-56
2023/03/28 04:41:04;;;;;;;11.50;10.90;;;20.30;53.90;;;;;;5013235;28;20450;-53
2023/03/28 04:43:31;;;;;;;9.77;9.30;;;20.30;53.50;;;;;;5012986;28;20512;-57
2023/03/28 04:45:59;;;;;;;11.73;10.93;;;20.30;53.20;;;;;;5012837;28;20465;-56
2023/03/28 04:48:26;;;;;;;14.60;11.33;;;20.30;53.40;;;;;;5013223;28;20528;-54
2023/03/28 04:50:54;;;;;;;9.83;9.50;;;20.30;52.60;;;;;;5013054;28;20524;-56
2023/03/28 04:53:22;;;;;;;11.37;10.40;;;20.30;52.30;;;;;;5012936;28;20504;-53
2023/03/28 04:55:49;;;;;;;11.00;10.40;;;20.30;52.10;;;;;;5012707;28;20561;-54
2023/03/28 04:58:17;;;;;;;11.70;10.27;;;20.30;51.90;;;;;;5012721;28;20460;-54
2023/03/28 05:00:45;;;;;;;11.10;10.70;;;20.30;51.70;;;;;;5012959;28;20966;-53
2023/03/28 05:03:17;;;;;;;10.57;10.17;;;20.30;51.60;;;;;;5012911;28;20474;-55
2023/03/28 05:05:44;;;;;;;10.87;10.23;;;20.30;51.50;;;;;;5012831;28;20484;-58
2023/03/28 05:08:12;;;;;;;10.00;9.40;;;20.20;51.20;;;;;;5012378;28;20932;-53
2023/03/28 05:10:40;;;;;;;11.30;10.37;;;20.30;51.20;;;;;;5012585;28;20918;-57
2023/03/28 05:13:08;;;;;;;10.10;9.50;;;20.30;51.10;;;;;;5012615;28;20529;-54
2023/03/28 05:15:34;;;;;;;12.13;11.33;;;20.30;51.00;;;;;;5012563;28;21030;-55
2023/03/28 05:18:01;;;;;;;9.77;9.27;;;20.30;50.90;;;;;;5012579;28;20541;-54
2023/03/28 05:20:29;;;;;;;9.97;9.33;;;20.30;50.70;;;;;;5012747;28;20445;-56
2023/03/28 05:22:56;;;;;;;10.20;9.60;;;20.30;50.60;;;;;;5012883;28;20482;-55
2023/03/28 05:25:23;;;;;;;9.77;9.27;;;20.40;50.60;;;;;;5012894;28;20544;-54
2023/03/28 05:27:51;;;;;;;10.00;9.60;;;20.40;50.50;;;;;;5012870;28;20489;-55
2023/03/28 05:30:18;;;;;;;10.77;10.07;;;20.40;50.40;;;;;;5012804;28;20518;-56
2023/03/28 05:32:45;;;;;;;10.60;10.10;;;20.40;50.40;;;;;;5012696;28;20477;-53
2023/03/28 05:35:14;;;;;;;10.30;9.90;;;20.40;50.30;;;;;;5012545;28;20501;-53
2023/03/28 05:37:42;;;;;;;9.93;9.43;;;20.40;50.10;;;;;;5012411;28;20526;-55
2023/03/28 05:40:10;;;;;;;10.20;9.70;;;20.40;50.10;;;;;;5012636;28;20465;-54
2023/03/28 05:42:37;;;;;;;10.40;9.90;;;20.40;50.00;;;;;;5012725;28;20446;-56
2023/03/28 05:45:08;;;;;;;10.90;10.30;;;20.40;49.90;;;;;;5012597;28;20508;-54
2023/03/28 05:47:35;;;;;;;9.57;9.37;;;20.40;50.40;;;;;;5012410;28;20470;-53
2023/03/28 05:50:02;;;;;;;10.53;10.23;;;20.40;49.80;;;;;;5012215;28;20539;-55
2023/03/28 05:52:29;;;;;;;10.00;9.70;;;20.40;49.70;;;;;;5012404;28;20477;-54
2023/03/28 05:54:56;;;;;;;9.90;9.50;;;20.40;49.60;;;;;;5012124;28;20866;-54
2023/03/28 05:57:23;;;;;;;9.67;9.47;;;20.40;49.60;;;;;;5012198;28;20815;-54
2023/03/28 05:59:50;;;;;;;10.60;9.87;;;20.40;49.50;;;;;;5012060;28;20525;-53
2023/03/28 06:02:21;;;;;;;9.87;9.57;;;20.40;49.50;;;;;;5012261;28;20441;-54
2023/03/28 06:04:48;;;;;;;10.60;10.10;;;20.40;49.50;;;;;;5011907;28;20506;-55
2023/03/28 06:07:15;;;;;;;10.67;10.27;;;20.40;49.50;;;;;;5012231;28;20741;-54
2023/03/28 06:09:42;;;;;;;10.37;10.07;;;20.30;49.30;;;;;;5012270;28;20676;-54
2023/03/28 06:12:09;;;;;;;10.33;10.03;;;20.30;49.30;;;;;;5011818;28;20534;-53
2023/03/28 06:14:36;;;;;;;10.63;10.27;;;20.30;49.30;;;;;;5014144;28;20477;-57
2023/03/28 06:17:03;;;;;;;10.77;10.37;;;20.30;49.30;;;;;;5015412;28;20482;-54
2023/03/28 06:19:31;;;;;;;10.77;10.27;;;20.30;49.20;;;;;;5015879;28;20473;-54
2023/03/28 06:21:58;;;;;;;11.67;11.23;;;20.30;49.20;;;;;;5015824;28;20484;-57
2023/03/28 06:24:25;;;;;;;10.80;10.40;;;20.20;49.10;;;;;;5016071;28;20481;-54
2023/03/28 06:26:52;;;;;;;10.90;10.50;;;20.20;49.10;;;;;;5016172;28;20450;-53
2023/03/28 06:29:19;;;;;;;10.40;10.00;;;20.30;49.20;;;;;;5015631;28;20545;-52
2023/03/28 06:31:46;;;;;;;11.23;10.83;;;20.30;49.20;;;;;;5015481;28;20842;-54
2023/03/28 06:34:13;;;;;;;11.10;10.80;;;20.20;49.10;;;;;;5015668;28;20512;-53
2023/03/28 06:36:41;;;;;;;12.10;11.50;;;20.20;49.00;;;;;;5015111;28;20508;-53
2023/03/28 06:39:09;;;;;;;11.70;11.20;;;20.30;49.00;;;;;;5014985;28;20481;-53
2023/03/28 06:41:36;;;;;;;10.57;10.17;;;20.30;49.00;;;;;;5015667;28;20473;-57
2023/03/28 06:44:03;;;;;;;10.93;10.63;;;20.30;48.90;;;;;;5015461;28;20500;-54
2023/03/28 06:46:30;;;;;;;10.93;10.60;;;20.30;49.00;;;;;;5015345;28;20524;-57
2023/03/28 06:48:57;;;;;;;11.23;10.80;;;20.40;49.00;;;;;;5015046;28;20478;-58
2023/03/28 06:51:24;;;;;;;10.50;10.10;;;20.40;48.90;;;;;;5015071;28;20576;-57
2023/03/28 06:53:53;;;;;;;11.30;10.90;;;20.40;48.90;;;;;;5015227;28;20442;-56
2023/03/28 06:56:20;;;;;;;10.77;10.37;;;20.40;48.80;;;;;;5015050;28;20532;-56
2023/03/28 06:58:46;;;;;;;9.90;9.60;;;20.40;48.80;;;;;;5015008;28;20481;-54
2023/03/28 07:01:13;;;;;;;10.07;9.77;;;20.50;48.80;;;;;;5014903;28;20485;-53
2023/03/28 07:03:40;;;;;;;10.87;10.57;;;20.50;48.80;;;;;;5015080;28;20474;-53
2023/03/28 07:06:09;;;;;;;10.73;10.40;;;20.50;48.80;;;;;;5014705;28;20564;-54
2023/03/28 07:08:37;;;;;;;10.80;10.40;;;20.50;48.80;;;;;;5014847;28;20879;-56
2023/03/28 07:11:06;;;;;;;10.53;10.20;;;20.50;48.70;;;;;;5014861;28;20836;-56
2023/03/28 07:13:32;;;;;;;10.10;9.80;;;20.40;48.60;;;;;;5014778;28;20478;-57
2023/03/28 07:16:01;;;;;;;11.47;10.97;;;20.40;48.50;;;;;;5014508;28;20553;-54
2023/03/28 07:18:27;;;;;;;10.50;10.00;;;20.50;48.50;;;;;;5014645;28;20990;-54
2023/03/28 07:20:55;;;;;;;10.10;9.80;;;20.50;48.60;;;;;;5014682;28;20887;-53
2023/03/28 07:23:22;;;;;;;10.60;10.30;;;20.40;48.50;;;;;;5014849;28;20478;-55
2023/03/28 07:25:48;;;;;;;10.97;10.67;;;20.40;48.40;;;;;;5014692;28;20557;-57
2023/03/28 07:28:17;;;;;;;10.97;10.47;;;20.40;48.50;;;;;;5014527;28;20995;-54
2023/03/28 07:30:44;;;;;;;10.83;10.27;;;20.40;48.40;;;;;;5014613;28;20517;-53
2023/03/28 07:33:10;;;;;;;10.70;10.30;;;20.40;48.40;;;;;;5014340;28;20542;-53
2023/03/28 07:35:39;;;;;;;10.57;10.37;;;20.30;48.30;;;;;;5014187;28;21037;-55
2023/03/28 07:38:06;;;;;;;10.67;10.30;;;20.40;48.40;;;;;;5013980;28;20457;-54
2023/03/28 07:40:33;;;;;;;10.90;10.60;;;20.30;48.30;;;;;;5014213;28;20982;-54
2023/03/28 07:43:00;;;;;;;10.40;10.10;;;20.30;48.30;;;;;;5014132;28;20537;-53
2023/03/28 07:45:28;;;;;;;10.43;10.13;;;20.30;48.30;;;;;;5014242;28;20557;-54
2023/03/28 07:47:55;;;;;;;10.00;9.80;;;20.30;48.30;;;;;;5013870;28;20482;-54
2023/03/28 07:50:22;;;;;;;10.53;10.30;;;20.30;48.30;;;;;;5014165;28;20485;-54
2023/03/28 07:52:51;;;;;;;9.90;9.60;;;20.30;48.30;;;;;;5013976;28;20450;-53
2023/03/28 07:55:18;;;;;;;10.43;10.13;;;20.30;48.30;;;;;;5014079;28;20478;-57
2023/03/28 07:57:45;;;;;;;10.50;10.20;;;20.30;48.30;;;;;;5013745;28;20533;-53
2023/03/28 08:00:14;;;;;;;9.90;9.70;;;20.30;48.30;;;;;;5013942;28;20821;-53
2023/03/28 08:02:42;;;;;;;10.27;9.83;;;20.30;48.30;;;;;;5013796;28;20883;-53
2023/03/28 08:05:10;;;;;;;10.57;10.17;;;20.40;48.40;;;;;;5057592;22;20520;-57
2023/03/28 08:07:36;;;;;;;10.90;10.70;;;20.40;48.30;;;;;;5042166;28;20442;-53
2023/03/28 08:10:04;;;;;;;10.43;10.13;;;20.40;48.30;;;;;;5041530;28;20452;-55
2023/03/28 08:12:31;;;;;;;9.40;9.20;;;20.40;48.30;;;;;;5042610;28;20468;-53
2023/03/28 08:14:58;;;;;;;9.93;9.73;;;20.50;48.30;;;;;;5042111;28;20441;-57
2023/03/28 08:17:26;;;;;;;9.80;9.60;;;20.50;48.30;;;;;;5041649;28;20874;-53
2023/03/28 08:19:54;;;;;;;10.70;10.50;;;20.50;48.20;;;;;;5042186;28;20445;-55
2023/03/28 08:22:21;;;;;;;10.50;10.20;;;20.50;48.10;;;;;;5041654;28;20999;-56
2023/03/28 08:24:48;;;;;;;10.50;10.30;;;20.50;48.20;;;;;;5041381;28;20484;-55
2023/03/28 08:27:15;;;;;;;10.90;10.60;;;20.50;48.10;;;;;;5041705;28;20453;-53
2023/03/28 08:29:42;;;;;;;9.60;9.40;;;20.60;48.20;;;;;;5042476;28;20442;-55
2023/03/28 08:32:09;;;;;;;10.53;10.30;;;20.60;48.10;;;;;;5041801;28;20516;-53
2023/03/28 08:34:36;;;;;;;10.10;9.80;;;20.60;48.10;;;;;;5042285;28;20503;-56
2023/03/28 08:37:05;;;;;;;10.40;10.10;;;20.50;48.00;;;;;;5042082;28;20493;-56
2023/03/28 08:39:33;;;;;;;9.73;9.53;;;20.60;48.00;;;;;;5041568;28;20478;-56
2023/03/28 08:42:24;;;;;;;10.37;10.17;;;20.60;48.00;;;;;;5042000;28;20468;-56
2023/03/28 08:45:03;;;;;;;10.33;9.93;;;20.50;47.90;;;;;;5039273;28;20463;-56
2023/03/28 08:47:32;;;;;;;10.70;10.40;;;20.50;47.90;;;;;;5041797;28;20499;-57
2023/03/28 08:50:03;;;;;;;10.30;10.10;;;20.60;47.90;;;;;;5042272;28;20449;-53
2023/03/28 08:52:32;;;;;;;10.30;10.07;;;20.50;47.80;;;;;;5042119;28;20477;-56
2023/03/28 08:55:03;;;;;;;10.30;10.00;;;20.50;47.80;;;;;;5042334;28;20448;-53
2023/03/28 08:57:33;;;;;;;10.77;10.47;;;20.50;47.80;;;;;;5041018;28;20456;-54
2023/03/28 09:00:11;;;;;;;10.23;10.00;;;20.50;47.80;;;;;;5041409;28;20449;-55
2023/03/28 09:02:38;;;;;;;10.33;10.03;;;20.50;47.80;;;;;;5041454;28;20453;-55
2023/03/28 09:05:06;;;;;;;10.50;10.20;;;20.40;47.70;;;;;;5041077;28;20520;-53
2023/03/28 09:07:43;;;;;;;10.30;10.10;;;20.40;47.70;;;;;;5041480;28;20480;-56
2023/03/28 09:10:19;;;;;;;10.57;10.27;;;20.50;47.90;;;;;;5042038;28;20464;-57
2023/03/28 09:13:04;;;;;;;10.20;9.90;;;20.40;47.80;;;;;;5041675;28;20511;-53
2023/03/28 09:15:44;;;;;;;9.80;9.60;;;20.40;47.80;;;;;;5041128;28;20465;-56
2023/03/28 09:18:36;;;;;;;9.83;9.63;;;20.40;47.80;;;;;;5040769;28;20465;-55
2023/03/28 09:21:08;;;;;;;9.90;9.70;;;20.40;47.70;;;;;;5041581;28;20450;-53
2023/03/28 09:24:09;;;;;;;10.07;9.87;;;20.30;47.60;;;;;;5041477;28;20467;-54
2023/03/28 09:26:41;;;;;;;10.60;10.30;;;20.40;47.70;;;;;;5026388;28;20481;-55
2023/03/28 09:29:14;;;;;;;10.53;10.23;;;20.30;47.70;;;;;;5041846;28;20472;-57
2023/03/28 09:31:45;;;;;;;10.13;9.83;;;20.30;47.70;;;;;;5041022;28;20572;-56
2023/03/28 09:34:20;;;;;;;9.47;9.27;;;20.30;47.60;;;;;;5042747;28;20448;-57
2023/03/28 09:36:50;;;;;;;10.20;10.00;;;20.40;47.70;;;;;;5043172;28;20460;-57
2023/03/28 09:39:32;;;;;;;10.67;10.47;;;20.40;47.70;;;;;;5044048;28;20758;-57
2023/03/28 09:42:04;;;;;;;10.70;10.40;;;20.40;47.70;;;;;;5044429;28;20460;-56
2023/03/28 09:44:34;;;;;;;10.50;10.20;;;20.50;47.70;;;;;;5043951;28;20471;-57
2023/03/28 09:47:02;;;;;;;10.27;10.07;;;20.50;47.60;;;;;;5043407;28;20461;-56
2023/03/28 09:49:29;;;;;;;10.30;10.10;;;20.60;47.70;;;;;;5045891;28;20445;-57
2023/03/28 09:51:57;;;;;;;10.03;9.83;;;20.60;47.60;;;;;;5047889;28;20523;-55
2023/03/28 09:54:29;;;;;;;9.63;9.43;;;20.60;47.60;;;;;;5048184;28;20449;-57
2023/03/28 09:57:00;;;;;;;9.10;8.90;;;20.70;47.60;;;;;;5047928;28;20465;-57
2023/03/28 09:59:28;;;;;;;9.63;9.43;;;20.60;47.50;;;;;;5047429;28;20776;-57
2023/03/28 10:01:57;;;;;;;9.17;8.97;;;20.70;47.50;;;;;;5047385;28;20445;-57
2023/03/28 10:04:32;;;;;;;9.60;9.30;;;20.70;47.50;;;;;;5047221;28;20942;-57
2023/03/28 10:07:21;;;;;;;9.93;9.73;;;20.70;47.40;;;;;;5046924;28;20480;-56
2023/03/28 10:09:51;;;;;;;9.90;9.70;;;20.70;47.40;;;;;;5047297;28;20437;-56
2023/03/28 10:12:21;;;;;;;11.13;10.73;;;20.70;47.30;;;;;;5046162;28;20500;-56
2023/03/28 10:14:48;;;;;;;9.70;9.43;;;20.70;47.30;;;;;;5046213;28;20449;-57
2023/03/28 10:17:21;;;;;;;9.40;9.10;;;20.70;47.30;;;;;;5045310;28;20445;-57
2023/03/28 10:19:48;;;;;;;9.97;9.77;;;20.70;47.30;;;;;;5046256;28;20455;-57
2023/03/28 10:22:21;;;;;;;10.10;9.90;;;20.70;47.20;;;;;;5045392;28;20468;-58
2023/03/28 10:24:50;;;;;;;9.80;9.60;;;20.70;47.20;;;;;;5045250;28;20469;-54
2023/03/28 10:27:22;;;;;;;10.83;10.57;;;20.70;47.10;;;;;;5046370;28;20445;-56
2023/03/28 10:29:52;;;;;;;10.43;10.13;;;20.70;47.10;;;;;;5045383;28;20455;-57
2023/03/28 10:32:25;;;;;;;10.23;10.03;;;20.70;47.10;;;;;;5045324;28;20487;-53
2023/03/28 10:35:01;;;;;;;9.80;9.60;;;20.60;47.10;;;;;;5047232;28;20449;-56
2023/03/28 10:37:30;;;;;;;10.20;10.00;;;20.70;47.10;;;;;;5046449;28;20837;-56
2023/03/28 10:40:05;;;;;;;10.20;10.00;;;20.60;47.00;;;;;;5045296;28;20444;-56
2023/03/28 10:42:50;;;;;;;10.30;10.10;;;20.60;47.10;;;;;;5045878;28;20444;-52
2023/03/28 10:45:23;;;;;;;10.40;10.10;;;20.70;47.10;;;;;;5045846;28;20460;-54
2023/03/28 10:47:52;;;;;;;10.40;10.20;;;20.60;47.10;;;;;;5046333;28;20439;-56
2023/03/28 10:50:28;;;;;;;10.00;9.80;;;20.60;47.10;;;;;;5046576;28;20961;-57
2023/03/28 10:53:10;;;;;;;10.50;10.20;;;20.60;47.10;;;;;;5046635;28;20515;-54
2023/03/28 10:55:41;;;;;;;10.57;10.27;;;20.60;47.10;;;;;;5046088;28;20460;-57
2023/03/28 10:58:15;;;;;;;10.20;9.90;;;20.60;47.10;;;;;;5047119;28;20473;-55
2023/03/28 11:00:45;;;;;;;11.70;11.40;;;20.50;47.00;;;;;;5045698;28;20446;-55
2023/03/28 11:03:24;;;;;;;10.50;10.20;;;20.50;47.00;;;;;;5047031;28;20498;-55
2023/03/28 11:05:56;;;;;;;10.23;10.03;;;20.50;47.00;;;;;;5046450;28;20548;-57
2023/03/28 11:08:47;;;;;;;10.97;10.67;;;20.50;47.00;;;;;;5046943;28;20456;-56
2023/03/28 11:11:38;;;;;;;10.70;10.50;;;20.60;47.10;;;;;;5044118;28;20449;-55
2023/03/28 11:14:19;;;;;;;10.50;10.30;;;20.50;47.00;;;;;;5042913;28;20453;-54
2023/03/28 11:16:55;;;;;;;10.40;10.20;;;20.60;47.10;;;;;;5045843;28;20465;-57
2023/03/28 11:19:38;;;;;;;10.40;10.20;;;20.60;47.00;;;;;;5046011;28;20445;-57
2023/03/28 11:22:15;;;;;;;10.00;9.80;;;20.70;47.10;;;;;;5046209;28;20457;-56
2023/03/28 11:24:51;;;;;;;10.97;10.67;;;20.70;47.00;;;;;;5045609;28;20449;-56
2023/03/28 11:27:28;;;;;;;10.33;10.13;;;20.70;47.00;;;;;;5045144;28;20441;-54
2023/03/28 11:29:59;;;;;;;10.40;10.20;;;20.70;47.00;;;;;;5046237;28;20464;-58
2023/03/28 11:32:30;;;;;;;9.97;9.77;;;20.70;47.00;;;;;;5045980;28;20523;-57
2023/03/28 11:35:06;;;;;;;10.10;9.90;;;20.80;47.00;;;;;;5044985;28;20445;-56
2023/03/28 11:37:40;;;;;;;10.50;10.30;;;20.80;47.00;;;;;;5044714;28;20460;-54
2023/03/28 11:40:18;;;;;;;10.60;10.40;;;20.80;47.00;;;;;;5045743;28;20447;-57
2023/03/28 11:42:51;;;;;;;10.37;10.17;;;20.80;46.90;;;;;;5045809;28;20441;-54
2023/03/28 11:45:26;;;;;;;11.20;10.90;;;20.80;46.90;;;;;;5044869;28;20465;-58
2023/03/28 11:48:04;;;;;;;10.00;9.70;;;20.90;47.00;;;;;;5045955;28;20855;-57
2023/03/28 11:50:37;;;;;;;9.57;9.37;;;20.90;46.90;;;;;;5045653;28;20889;-55
2023/03/28 11:53:08;;;;;;;9.90;9.70;;;20.90;46.90;;;;;;5045527;28;20511;-57
2023/03/28 11:55:40;;;;;;;9.77;9.53;;;20.90;46.80;;;;;;5045652;28;20473;-56
2023/03/28 11:58:15;;;;;;;9.70;9.50;;;20.90;46.80;;;;;;5044248;28;20445;-51
2023/03/28 12:00:46;;;;;;;9.30;9.10;;;20.90;46.80;;;;;;5044376;28;20937;-57
2023/03/28 12:03:19;;;;;;;9.57;9.37;;;20.90;46.70;;;;;;5043395;28;20441;-57
2023/03/28 12:05:50;;;;;;;10.37;9.97;;;20.90;46.70;;;;;;5043071;28;20533;-55
2023/03/28 12:08:23;;;;;;;10.43;10.17;;;20.90;46.70;;;;;;5043233;28;21012;-53
2023/03/28 12:10:53;;;;;;;10.10;9.90;;;20.90;46.70;;;;;;5042257;28;20503;-57
2023/03/28 12:13:30;;;;;;;10.63;10.33;;;20.90;46.70;;;;;;5042405;28;20481;-55
2023/03/28 12:16:00;;;;;;;10.30;10.10;;;20.90;46.70;;;;;;5043054;28;20469;-52
2023/03/28 12:18:31;;;;;;;10.03;9.83;;;20.90;46.60;;;;;;5042645;28;20878;-57
2023/03/28 12:21:04;;;;;;;10.00;9.80;;;20.90;46.60;;;;;;5042475;28;20449;-56
2023/03/28 12:23:37;;;;;;;9.60;9.40;;;20.90;46.50;;;;;;5042725;28;20437;-57
2023/03/28 12:26:17;;;;;;;9.53;9.33;;;20.90;46.50;;;;;;5042631;28;20469;-55
2023/03/28 12:28:49;;;;;;;9.93;9.70;;;20.90;46.50;;;;;;5042157;28;20453;-54
2023/03/28 12:31:22;;;;;;;10.43;10.20;;;20.90;46.50;;;;;;5043527;28;20445;-56
2023/03/28 12:33:59;;;;;;;9.70;9.50;;;20.90;46.50;;;;;;5042603;28;20807;-56
2023/03/28 12:36:34;;;;;;;9.57;9.37;;;20.90;46.50;;;;;;5042157;28;21017;-56
2023/03/28 12:39:11;;;;;;;10.30;10.10;;;20.90;46.50;;;;;;5042947;28;20472;-57
2023/03/28 12:41:40;;;;;;;10.53;10.33;;;20.90;46.50;;;;;;5042351;28;20445;-55
2023/03/28 12:44:13;;;;;;;10.00;9.80;;;20.90;46.50;;;;;;5042046;28;20448;-55
2023/03/28 12:46:45;;;;;;;10.20;10.00;;;20.90;46.50;;;;;;5042194;28;20484;-56
2023/03/28 12:49:18;;;;;;;9.60;9.40;;;20.90;46.60;;;;;;5042253;28;20447;-55
2023/03/28 12:51:50;;;;;;;9.97;9.77;;;20.90;46.50;;;;;;5041996;28;20472;-56
2023/03/28 12:54:26;;;;;;;9.40;9.20;;;20.80;46.50;;;;;;5042080;28;20445;-56
2023/03/28 12:57:04;;;;;;;10.03;9.83;;;20.80;46.50;;;;;;5041469;28;20500;-54
2023/03/28 12:59:53;;;;;;;10.10;9.90;;;20.80;46.50;;;;;;5041727;28;20445;-56